createdAt,value
2023-08-01T00:02:48.549Z,32.6
2023-08-01T00:08:43.533Z,32.6
2023-08-01T00:14:34.861Z,32.7
2023-08-01T00:20:38.421Z,32.8
2023-08-01T00:26:29.282Z,32.9
2023-08-01T00:32:26.286Z,32.9
2023-08-01T00:38:18.284Z,33
2023-08-01T00:43:54.505Z,33.1
2023-08-01T00:49:46.799Z,33.1
2023-08-01T00:55:38.215Z,33.3
2023-08-01T01:01:31.040Z,33.3
2023-08-01T01:07:24.383Z,33.3
2023-08-01T01:13:16.203Z,33.4
2023-08-01T01:19:08.419Z,33.5
2023-08-01T01:25:06.416Z,33.6
2023-08-01T01:30:58.649Z,33.6
2023-08-01T01:42:11.475Z,33.7
2023-08-01T01:48:04.065Z,33.8
2023-08-01T01:53:55.596Z,33.8
2023-08-01T01:59:47.748Z,33.9
2023-08-01T02:05:39.065Z,33.9
2023-08-01T02:11:30.039Z,34
2023-08-01T02:17:22.425Z,34
2023-08-01T02:23:16.794Z,34.1
2023-08-01T02:29:08.057Z,34.1
2023-08-01T02:35:01.504Z,34.2
2023-08-01T02:40:53.513Z,34.3
2023-08-01T02:46:45.455Z,34.3
2023-08-01T02:52:36.950Z,34.3
2023-08-01T02:58:28.207Z,34.4
2023-08-01T03:04:24.265Z,34.4
2023-08-01T03:10:08.012Z,34.4
2023-08-01T03:16:12.194Z,34.5
2023-08-01T03:22:03.516Z,34.6
2023-08-01T03:27:54.760Z,34.6
2023-08-01T03:33:47.150Z,34.6
2023-08-01T03:39:37.971Z,34.7
2023-08-01T03:45:29.903Z,34.7
2023-08-01T03:51:21.685Z,34.8
2023-08-01T03:57:13.766Z,34.8
2023-08-01T04:03:06.177Z,34.8
2023-08-01T04:08:58.761Z,34.8
2023-08-01T04:14:50.233Z,34.9
2023-08-01T04:20:41.114Z,34.9
2023-08-01T04:26:32.428Z,34.9
2023-08-01T04:32:23.853Z,35
2023-08-01T04:38:15.016Z,35
2023-08-01T04:44:06.589Z,35
2023-08-01T04:49:57.488Z,35.1
2023-08-01T04:55:48.958Z,35.1
2023-08-01T05:01:26.015Z,35.1
2023-08-01T05:07:17.664Z,35.1
2023-08-01T05:13:09.184Z,35.2
2023-08-01T05:19:00.801Z,35.2
2023-08-01T05:24:52.156Z,35.2
2023-08-01T05:30:43.803Z,35.3
2023-08-01T05:36:35.549Z,35.3
2023-08-01T05:42:26.794Z,35.3
2023-08-01T05:48:19.496Z,35.3
2023-08-01T05:54:11.532Z,35.3
2023-08-01T06:00:05.626Z,35.3
2023-08-01T06:05:43.220Z,35.4
2023-08-01T06:11:19.905Z,35.4
2023-08-01T06:16:56.021Z,35.4
2023-08-01T06:22:48.532Z,35.4
2023-08-01T06:28:42.862Z,35.4
2023-08-01T06:34:34.083Z,35.4
2023-08-01T06:40:26.071Z,35.4
2023-08-01T06:46:18.470Z,35.6
2023-08-01T06:52:11.307Z,35.9
2023-08-01T06:58:03.189Z,35.9
2023-08-01T07:03:55.839Z,36.2
2023-08-01T07:09:50.404Z,36.7
2023-08-01T07:15:42.334Z,36.7
2023-08-01T07:21:34.413Z,37.2
2023-08-01T07:27:28.187Z,37.8
2023-08-01T07:33:20.353Z,38.3
2023-08-01T07:39:12.602Z,38.8
2023-08-01T07:45:04.186Z,39.3
2023-08-01T07:50:56.396Z,39.9
2023-08-01T07:56:48.544Z,40.4
2023-08-01T08:02:40.555Z,40.9
2023-08-01T08:08:33.395Z,41.4
2023-08-01T08:14:25.077Z,41.9
2023-08-01T08:20:16.821Z,42.3
2023-08-01T08:25:53.303Z,42.7
2023-08-01T08:31:14.924Z,43
2023-08-01T08:36:52.762Z,43.4
2023-08-01T08:42:44.889Z,43.8
2023-08-01T08:48:37.793Z,44.2
2023-08-01T08:54:29.947Z,44.6
2023-08-01T09:00:22.094Z,45
2023-08-01T09:06:15.304Z,45.4
2023-08-01T09:12:09.462Z,45.9
2023-08-01T09:18:04.281Z,46.4
2023-08-01T09:23:42.633Z,46.8
2023-08-01T09:29:34.111Z,47.3
2023-08-01T09:35:28.460Z,47.7
2023-08-01T09:41:20.406Z,48.2
2023-08-01T09:46:56.258Z,48.7
2023-08-01T09:52:52.074Z,49.1
2023-08-01T09:58:28.176Z,49.5
2023-08-01T10:04:20.440Z,50.1
2023-08-01T10:10:13.244Z,50.5
2023-08-01T10:16:05.437Z,51
2023-08-01T10:21:58.418Z,51.5
2023-08-01T10:39:03.322Z,52.8
2023-08-01T10:44:54.714Z,53.2
2023-08-01T10:50:49.002Z,53.6
2023-08-01T10:56:45.729Z,54
2023-08-01T11:02:22.705Z,54.3
2023-08-01T11:08:14.998Z,54.6
2023-08-01T11:14:06.182Z,55
2023-08-01T11:19:42.333Z,55.4
2023-08-01T11:25:34.602Z,55.7
2023-08-01T11:31:26.310Z,56.1
2023-08-01T11:37:19.269Z,56.4
2023-08-01T11:43:10.899Z,56.8
2023-08-01T11:49:02.619Z,57
2023-08-01T11:54:54.658Z,57.3
2023-08-01T12:00:47.894Z,57.6
2023-08-01T12:06:41.588Z,57.9
2023-08-01T12:12:35.699Z,58.1
2023-08-01T12:24:35.790Z,58.6
2023-08-01T12:30:27.842Z,58.9
2023-08-01T12:36:19.980Z,59.1
2023-08-01T12:42:11.865Z,59.3
2023-08-01T12:48:08.645Z,59.4
2023-08-01T12:54:00.547Z,59.5
2023-08-01T12:59:36.409Z,59.7
2023-08-01T13:05:29.005Z,59.8
2023-08-01T13:11:21.006Z,59.9
2023-08-01T13:17:25.054Z,59.9
2023-08-01T13:23:19.737Z,60
2023-08-01T13:29:11.175Z,60.1
2023-08-01T13:35:03.325Z,60
2023-08-01T13:40:54.986Z,59.9
2023-08-01T13:47:00.422Z,59.9
2023-08-01T13:52:54.857Z,59.4
2023-08-01T13:58:46.213Z,59.4
2023-08-01T14:04:45.274Z,59.3
2023-08-01T14:10:37.551Z,59.3
2023-08-01T14:16:29.224Z,59.3
2023-08-01T14:22:21.441Z,59.2
2023-08-01T14:28:12.016Z,59.1
2023-08-01T14:34:04.907Z,59.1
2023-08-01T14:40:10.343Z,58.9
2023-08-01T14:46:48.587Z,58.9
2023-08-01T14:52:44.686Z,58.8
2023-08-01T14:58:50.800Z,58.8
2023-08-01T15:04:45.359Z,58.6
2023-08-01T15:16:15.317Z,58.5
2023-08-01T15:21:51.235Z,58.4
2023-08-01T15:27:43.279Z,58.4
2023-08-01T15:33:34.689Z,58.3
2023-08-01T15:39:25.757Z,58.2
2023-08-01T15:45:20.407Z,58.1
2023-08-01T15:51:12.974Z,58.1
2023-08-01T15:57:06.156Z,58
2023-08-01T16:02:57.646Z,57.9
2023-08-01T16:08:49.766Z,57.6
2023-08-01T16:14:39.344Z,57.4
2023-08-01T16:20:19.508Z,57.2
2023-08-01T16:25:56.401Z,57
2023-08-01T16:31:48.156Z,56.8
2023-08-01T16:37:26.131Z,56.6
2023-08-01T16:43:19.270Z,56.4
2023-08-01T16:49:38.520Z,56.3
2023-08-01T16:55:14.346Z,56.1
2023-08-01T17:01:05.542Z,56
2023-08-01T17:06:58.241Z,55.9
2023-08-01T17:12:51.465Z,55.5
2023-08-01T17:18:43.304Z,55.3
2023-08-01T17:24:34.825Z,55.1
2023-08-01T17:30:27.113Z,55
2023-08-01T17:36:19.393Z,54.8
2023-08-01T17:42:10.694Z,54.7
2023-08-01T17:48:04.471Z,54.6
2023-08-01T17:53:56.184Z,28.2
2023-08-01T17:59:17.542Z,24.2
2023-08-01T18:04:57.533Z,24.6
2023-08-01T18:10:33.481Z,25.1
2023-08-01T18:16:10.822Z,25.6
2023-08-01T18:21:47.886Z,25.9
2023-08-01T18:27:39.900Z,26.4
2023-08-01T18:33:30.976Z,26.8
2023-08-01T18:39:26.499Z,27.2
2023-08-01T18:45:18.057Z,27.5
2023-08-01T18:51:10.801Z,27.9
2023-08-01T18:57:03.235Z,28.2
2023-08-01T19:02:39.607Z,28.5
2023-08-01T19:08:30.939Z,28.8
2023-08-01T19:14:30.081Z,29.1
2023-08-01T19:20:22.494Z,29.3
2023-08-01T19:26:14.446Z,29.6
2023-08-01T19:32:07.971Z,29.8
2023-08-01T19:37:59.400Z,30
2023-08-01T19:43:49.987Z,30.3
2023-08-01T19:49:43.855Z,30.4
2023-08-01T19:55:19.916Z,30.6
2023-08-01T20:00:56.517Z,30.8
2023-08-01T20:06:52.392Z,31
2023-08-01T20:12:43.345Z,31.2
2023-08-01T20:18:19.093Z,31.3
2023-08-01T20:24:10.875Z,31.5
2023-08-01T20:30:02.205Z,31.7
2023-08-01T20:35:53.401Z,31.8
2023-08-01T20:41:45.250Z,32
2023-08-01T20:47:37.416Z,32.1
2023-08-01T20:53:31.541Z,32.3
2023-08-01T20:59:23.565Z,32.4
2023-08-01T21:05:15.467Z,32.6
2023-08-01T21:11:22.056Z,32.7
2023-08-01T21:16:58.933Z,32.9
2023-08-01T21:22:51.342Z,33
2023-08-01T21:28:27.502Z,33.1
2023-08-01T21:34:05.417Z,33.2
2023-08-01T21:39:56.947Z,33.3
2023-08-01T21:45:48.827Z,33.4
2023-08-01T21:51:41.202Z,33.6
2023-08-01T21:57:33.316Z,33.7
2023-08-01T22:03:26.128Z,33.8
2023-08-01T22:09:18.860Z,33.9
2023-08-01T22:14:55.790Z,34
2023-08-01T22:20:32.849Z,34.1
2023-08-01T22:26:25.311Z,34.2
2023-08-01T22:32:17.477Z,34.3
2023-08-01T22:38:09.137Z,34.4
2023-08-01T22:43:45.470Z,34.5
2023-08-01T22:49:39.488Z,34.6
2023-08-01T22:55:26.649Z,34.6
2023-08-01T23:01:18.421Z,34.8
2023-08-01T23:06:55.908Z,34.8
2023-08-01T23:12:45.269Z,34.9
2023-08-01T23:18:22.151Z,35
2023-08-01T23:23:58.962Z,35.1
2023-08-01T23:29:51.128Z,35.1
2023-08-01T23:35:27.831Z,35.3
2023-08-01T23:41:19.330Z,35.3
2023-08-01T23:47:11.667Z,35.4
2023-08-01T23:53:03.157Z,35.4
2023-08-01T23:58:40.489Z,35.5
